Terminal Aerodrome Forecast
Issued by NWS

Home | Current Version | Previous Version | Text Only | Print | Product List | Glossary On
Versions: 1 2 3 4 5 6 7 8 9 10 11 12 13 14 15 16 17 18 19 20 21 22 23 24 25 26 27 28 29 30 31 32 33 34 35 36 37 38 39 40
000
FTUS45 KSLC 120149 AAA
TAFENV
TAF AMD
KENV 120149Z 1202/1224 11011KT P6SM VCSH SCT070 BKN150
      TEMPO 1202/1204 22019G25KT P6SM -SHRA SCT070 BKN120
     FM120400 VRB04KT P6SM SCT080 SCT120
     FM121600 10008KT P6SM SCT200
      AMD LTD TO CLD VIS AND WIND=

USA.gov is the U.S. government's official web portal to all federal, state and local government web resources and services.